Mentone, Texas
Current Conditions -  °F | °C
As of 3:35 PM on Friday 24 Oct 2014 (Local Time) from KPEQ Reporting Station
Clear Clear  
Wind Chill: 85°   Ceiling: Unl
Heat Index: 85°   Visibility: 10mi
Dew Point: 51°   Wind: 6mph
Humidity: 30%   Direction: 160°SSE
Pressure: 30.11"   Gusts: NA
Location:  31.71°N, 103.6°W
Report Text: KPEQ 242035Z AUTO 16005KT 10SM CLR 30/11 A3011 RMK AO2 T02970106
Loading
Personal Weather Stations






























Interactive Weather Map
Tropical Storm Tracking
New forecast layout! Learn more

10-Day Weather Forecast

Advertisements
Track Severe Weather on mobile